Date,TemperatureHighF,TemperatureAvgF,TemperatureLowF,DewpointHighF,DewpointAvgF,DewpointLowF,HumidityHigh,HumidityAvg,HumidityLow,PressureMaxIn,PressureMinIn,WindSpeedMaxMPH,WindSpeedAvgMPH,GustSpeedMaxMPH,PrecipitationSumIn
2013-8-1,83.2,72.1,63.7,67.5,60.2,50.1,95,70,34,29.87,29.80,3,0,18,0.05
2013-8-2,83.6,69.8,57.6,65.5,60.2,54.6,92,73,49,29.87,29.80,9,2,23,0.00
2013-8-3,80.9,72.0,65.2,68.6,64.1,56.3,94,78,50,29.94,29.81,4,0,12,0.34
2013-8-4,76.1,67.1,56.6,58.4,54.6,49.4,86,66,40,30.04,29.94,6,1,14,0.34
2013-8-5,80.3,69.0,59.3,62.4,57.2,52.3,90,68,40,29.99,29.81,3,0,11,0.00
2013-8-6,79.8,71.7,65.2,70.0,64.4,59.1,88,78,70,29.83,29.76,4,0,11,0.00
2013-8-7,84.0,76.0,70.8,72.3,70.4,68.0,96,83,65,29.79,29.72,3,0,12,0.00
2013-8-8,85.1,76.7,72.5,73.1,71.5,68.7,94,85,61,29.81,29.75,4,0,14,0.11
2013-8-9,81.8,74.1,69.6,70.2,67.0,62.7,94,80,56,29.90,29.76,3,0,10,0.04
2013-8-10,85.1,75.5,68.1,68.5,64.7,60.6,90,71,49,29.97,29.90,1,0,7,0.01
2013-8-21,80.7,77.3,73.0,67.8,67.0,66.2,80,71,63,29.95,29.90,0,0,0,0.00
2013-8-22,85.3,75.1,68.4,69.4,66.5,64.8,91,76,53,29.96,29.88,10,1,19,0.00
2013-8-23,81.8,72.8,64.2,68.2,64.0,59.6,95,76,49,30.01,29.92,7,1,13,0.00
2013-8-24,86.5,74.7,62.1,62.2,56.7,48.4,78,56,27,30.13,30.01,1,0,9,0.00
2013-8-25,88.2,75.1,62.4,62.3,58.5,52.4,84,60,33,30.18,30.08,2,0,11,0.00
2013-8-26,90.3,76.5,65.3,72.0,64.6,57.6,84,68,46,30.10,29.93,3,0,13,0.00
2013-8-27,92.5,79.5,70.6,73.4,69.9,67.1,94,74,46,29.94,29.81,3,0,15,0.00
2013-8-28,93.6,81.8,72.7,74.9,70.9,66.5,90,72,49,29.83,29.75,4,0,15,0.00
2013-8-29,88.0,78.0,71.1,71.3,68.5,64.3,94,74,48,29.91,29.83,3,0,10,0.00
2013-8-30,94.0,79.4,67.3,71.4,67.5,64.9,93,70,40,29.85,29.67,3,0,14,0.11
2013-8-31,93.6,77.2,71.3,88.2,69.7,65.2,93,79,44,29.72,29.61,12,1,21,0.70